Time;durP1;ratioP1;P1;durP2;ratioP2;P2;SDS_P1;SDS_P2;PMS_P1;PMS_P2;Temp;Humidity;BMP_temperature;BMP_pressure;BME280_temperature;BME280_humidity;BME280_pressure;Samples;Min_cycle;Max_cycle;Signal;HPM_P1;HPM_P2
2022/04/01 00:00:45;;;;;;;;;;;;;;;-1.02;70.93;100634.88;5096180;28;20072;-77
2022/04/01 00:03:10;;;;;;;;;;;;;;;-1.00;70.85;100666.00;5096301;28;19919;-77
2022/04/01 00:05:36;;;;;;;;;;;;;;;-1.00;70.81;100677.22;5096345;28;19934;-77
2022/04/01 00:08:02;;;;;;;;;;;;;;;-1.03;70.79;100663.19;5096346;28;19916;-77
2022/04/01 00:10:27;;;;;;;;;;;;;;;-1.01;70.72;100656.44;5096922;28;20322;-78
2022/04/01 00:12:52;;;;;;;;;;;;;;;-1.03;70.64;100677.00;5096503;28;19916;-76
2022/04/01 00:15:18;;;;;;;;;;;;;;;-1.00;70.62;100689.25;5096731;28;19915;-78
2022/04/01 00:17:43;;;;;;;;;;;;;;;-0.99;70.60;100679.03;5096229;28;20002;-77
2022/04/01 00:20:09;;;;;;;;;;;;;;;-1.00;70.36;100691.84;5114682;28;19966;-76
2022/04/01 00:22:35;;;;;;;;;;;;;;;-1.02;70.10;100690.84;5096238;28;20007;-76
2022/04/01 00:25:00;;;;;;;;;;;;;;;-1.00;70.07;100686.69;5094840;28;19982;-76
2022/04/01 00:27:25;;;;;;;;;;;;;;;-1.05;70.09;100681.16;5095724;28;20399;-75
2022/04/01 00:29:51;;;;;;;;;;;;;;;-1.03;69.90;100683.84;5095194;28;19973;-75
2022/04/01 00:32:16;;;;;;;;;;;;;;;-1.00;69.85;97183.31;5094545;28;20358;-76
2022/04/01 00:34:42;;;;;;;;;;;;;;;-1.06;69.64;97096.22;5094323;28;19922;-75
2022/04/01 00:37:10;;;;;;;;;;;;;;;-1.03;69.53;97079.94;5112875;28;19912;-77
2022/04/01 00:39:35;;;;;;;;;;;;;;;-1.02;69.62;97032.63;5132902;27;19926;-76
2022/04/01 00:42:01;;;;;;;;;;;;;;;-1.05;69.71;97004.16;5116089;27;19915;-77
2022/04/01 00:44:29;;;;;;;;;;;;;;;-1.04;69.82;97009.38;5116230;27;20279;-76
2022/04/01 00:46:58;;;;;;;;;;;;;;;-1.08;69.80;97003.25;5115798;27;20275;-76
2022/04/01 00:49:24;;;;;;;;;;;;;;;-1.09;69.93;97011.84;5116361;27;19915;-76
2022/04/01 00:51:50;;;;;;;;;;;;;;;-1.08;69.74;96840.56;5115431;27;19919;-74
2022/04/01 00:54:17;;;;;;;;;;;;;;;-1.09;69.72;96833.69;5115947;27;19915;-77
2022/04/01 00:56:43;;;;;;;;;;;;;;;-1.11;69.71;96837.94;5115724;28;19916;-77
2022/04/01 00:59:09;;;;;;;;;;;;;;;-1.12;69.68;96848.25;5115499;27;19923;-76
2022/04/01 01:01:35;;;;;;;;;;;;;;;-1.12;69.63;96854.28;5116597;27;19916;-77
2022/04/01 01:04:12;;;;;;;;;;;;;;;-1.10;69.61;96844.00;5116236;27;19960;-77
2022/04/01 01:06:38;;;;;;;;;;;;;;;-1.15;70.53;96732.00;5116246;27;19966;-76
2022/04/01 01:09:04;;;;;;;;;;;;;;;-1.11;69.78;96695.94;5116123;27;20289;-77
2022/04/01 01:11:35;;;;;;;;;;;;;;;-1.14;69.24;96697.63;5116253;27;19916;-76
2022/04/01 01:14:09;;;;;;;;;;;;;;;-1.14;69.45;96690.72;5133551;27;19916;-77
2022/04/01 01:16:35;;;;;;;;;;;;;;;-1.15;68.85;96693.28;5116333;27;19915;-76
2022/04/01 01:19:04;;;;;;;;;;;;;;;-1.15;68.88;96699.34;5133615;27;20367;-75
2022/04/01 01:21:30;;;;;;;;;;;;;;;-1.15;69.01;96704.50;5098953;27;19919;-76
2022/04/01 01:24:00;;;;;;;;;;;;;;;-1.18;68.85;96712.19;5115478;28;20416;-76
2022/04/01 01:26:26;;;;;;;;;;;;;;;-1.14;68.93;96734.63;5115570;28;19915;-76
2022/04/01 01:28:52;;;;;;;;;;;;;;;-1.14;69.21;96754.41;5114705;28;19923;-76
2022/04/01 01:31:17;;;;;;;;;;;;;;;-1.16;68.90;96759.56;5115787;28;19961;-76
2022/04/01 01:33:51;;;;;;;;;;;;;;;-1.15;68.93;96778.47;5134002;27;19915;-76
2022/04/01 01:36:16;;;;;;;;;;;;;;;-1.14;68.96;96791.41;5115614;28;19926;-76
2022/04/01 01:38:42;;;;;;;;;;;;;;;-1.14;68.98;96803.47;5115336;28;19920;-75
2022/04/01 01:41:07;;;;;;;;;;;;;;;-1.15;69.00;96815.50;5115386;28;20057;-77
2022/04/01 01:43:33;;;;;;;;;;;;;;;-1.16;69.08;96859.38;5114999;28;19919;-77
2022/04/01 01:45:59;;;;;;;;;;;;;;;-1.21;69.07;96853.25;5115287;28;19920;-76
2022/04/01 01:48:24;;;;;;;;;;;;;;;-1.21;69.10;96869.63;5115612;28;19923;-77
2022/04/01 01:56:17;;;;;;;;;;;;;;;-1.20;69.02;96898.88;5134210;28;20011;-77
2022/04/01 01:58:43;;;;;;;;;;;;;;;-1.17;69.09;96912.69;5116135;28;19966;-78
2022/04/01 02:01:09;;;;;;;;;;;;;;;-1.17;69.00;96925.59;5134323;28;20311;-77
2022/04/01 02:03:34;;;;;;;;;;;;;;;-1.18;69.00;96938.47;5115650;28;19916;-78
2022/04/01 02:05:59;;;;;;;;;;;;;;;-1.19;69.08;96947.09;5115334;28;19920;-78
2022/04/01 02:08:25;;;;;;;;;;;;;;;-1.17;69.12;96966.91;5116789;27;19915;-78
2022/04/01 02:10:50;;;;;;;;;;;;;;;-1.14;69.19;96971.28;5119618;27;19951;-77
2022/04/01 02:13:17;;;;;;;;;;;;;;;-1.17;69.12;96985.00;5102686;27;19923;-77
2022/04/01 02:15:42;;;;;;;;;;;;;;;-1.16;69.08;96986.75;5119547;27;20005;-78
2022/04/01 02:18:08;;;;;;;;;;;;;;;-1.13;69.14;96985.94;5119599;27;19930;-78
2022/04/01 02:20:34;;;;;;;;;;;;;;;-1.14;69.15;97021.19;5119240;27;19921;-78
2022/04/01 02:23:00;;;;;;;;;;;;;;;-1.13;69.13;97015.19;5119249;27;20371;-77
2022/04/01 02:25:25;;;;;;;;;;;;;;;-1.11;69.17;97030.72;5115791;27;19916;-77
2022/04/01 02:27:51;;;;;;;;;;;;;;;-1.09;69.23;97037.66;5101197;27;19931;-78
2022/04/01 02:30:16;;;;;;;;;;;;;;;-1.11;69.33;97046.22;5137440;27;20422;-77
2022/04/01 02:32:42;;;;;;;;;;;;;;;-1.11;69.36;97044.50;5137704;27;20279;-77
2022/04/01 02:35:09;;;;;;;;;;;;;;;-1.11;69.43;97074.63;5119472;27;20010;-76
2022/04/01 02:37:35;;;;;;;;;;;;;;;-1.09;69.45;97080.69;5117288;27;20377;-77
2022/04/01 02:40:01;;;;;;;;;;;;;;;-1.03;69.50;97079.94;5098865;28;19968;-77
2022/04/01 02:42:26;;;;;;;;;;;;;;;-1.10;69.59;97095.31;5098827;28;20283;-76
2022/04/01 02:44:52;;;;;;;;;;;;;;;-1.12;69.46;97102.16;5097004;28;20008;-78
2022/04/01 02:47:17;;;;;;;;;;;;;;;-1.10;69.53;97117.69;5097131;28;19919;-78
2022/04/01 02:49:43;;;;;;;;;;;;;;;-1.07;69.61;97115.16;5098790;28;19923;-77
2022/04/01 02:52:08;;;;;;;;;;;;;;;-1.12;69.74;97125.41;5098481;28;19919;-77
2022/04/01 02:54:35;;;;;;;;;;;;;;;-1.06;69.79;97126.34;5098594;28;19934;-78
2022/04/01 02:57:00;;;;;;;;;;;;;;;-1.09;69.95;97159.03;5113059;28;19916;-77
2022/04/01 02:59:25;;;;;;;;;;;;;;;-1.06;70.04;97159.94;5098199;28;19973;-79
2022/04/01 03:01:51;;;;;;;;;;;;;;;-1.06;70.13;97162.50;5081510;28;20010;-78
2022/04/01 03:04:16;;;;;;;;;;;;;;;-1.06;70.18;97180.59;5098148;28;19926;-78
2022/04/01 03:06:45;;;;;;;;;;;;;;;-1.07;70.29;97195.22;5098284;28;19969;-78
2022/04/01 03:09:11;;;;;;;;;;;;;;;-1.11;70.40;97203.72;5098224;28;19941;-79
2022/04/01 03:11:37;;;;;;;;;;;;;;;-1.11;70.52;97199.41;5116802;28;19919;-77
2022/04/01 03:14:03;;;;;;;;;;;;;;;-1.08;70.60;97238.22;5098053;28;19915;-77
2022/04/01 03:16:29;;;;;;;;;;;;;;;-1.07;70.43;97213.28;5081545;28;19919;-78
2022/04/01 03:18:57;;;;;;;;;;;;;;;-1.11;70.69;97222.66;5098400;28;19960;-78
2022/04/01 03:21:23;;;;;;;;;;;;;;;-1.09;70.97;97238.19;5097699;28;19985;-79
2022/04/01 03:23:48;;;;;;;;;;;;;;;-1.06;71.18;97225.34;5098340;28;19923;-78
2022/04/01 03:26:14;;;;;;;;;;;;;;;-1.08;71.53;97252.84;5098454;28;20128;-78
2022/04/01 03:28:40;;;;;;;;;;;;;;;-1.06;71.84;97256.34;5098349;28;19917;-78
2022/04/01 03:31:05;;;;;;;;;;;;;;;-1.02;72.06;97249.56;5098153;28;19984;-78
2022/04/01 03:33:32;;;;;;;;;;;;;;;-1.07;72.37;97275.28;5115887;28;19916;-79
2022/04/01 03:35:57;;;;;;;;;;;;;;;-1.07;72.87;97283.00;5096201;28;19915;-77
2022/04/01 03:38:22;;;;;;;;;;;;;;;-1.03;73.52;97299.44;5097033;28;20006;-77
2022/04/01 03:40:49;;;;;;;;;;;;;;;-1.03;74.50;97291.69;5097798;28;20359;-77
2022/04/01 03:43:15;;;;;;;;;;;;;;;-1.08;74.88;97318.28;5097481;28;19969;-77
2022/04/01 03:45:45;;;;;;;;;;;;;;;-1.02;75.74;97314.97;5097266;28;19915;-77
2022/04/01 03:48:14;;;;;;;;;;;;;;;-1.02;76.05;97316.69;5097640;28;19981;-77
2022/04/01 03:50:43;;;;;;;;;;;;;;;-1.02;75.87;97342.53;5097678;28;19916;-78
2022/04/01 03:53:09;;;;;;;;;;;;;;;-1.00;74.90;97362.38;5080681;28;19975;-76
2022/04/01 03:55:36;;;;;;;;;;;;;;;-1.03;76.42;97364.00;5097296;28;19923;-76
2022/04/01 03:58:13;;;;;;;;;;;;;;;-1.01;78.21;97362.31;5097066;28;20007;-77
2022/04/01 04:00:40;;;;;;;;;;;;;;;-0.99;79.05;97386.50;5097678;28;20314;-79
2022/04/01 04:03:08;;;;;;;;;;;;;;;-0.99;79.83;97395.13;5097117;28;19915;-76
2022/04/01 04:05:34;;;;;;;;;;;;;;;-0.97;80.19;97390.84;5097231;28;20534;-78
2022/04/01 04:08:01;;;;;;;;;;;;;;;-0.98;81.63;97414.06;5097094;28;19915;-78
2022/04/01 04:10:28;;;;;;;;;;;;;;;-1.00;81.65;97426.94;5080344;28;20022;-78
2022/04/01 04:12:57;;;;;;;;;;;;;;;-0.98;81.85;97421.81;5096997;28;19926;-78
2022/04/01 04:15:26;;;;;;;;;;;;;;;-0.98;81.56;97437.31;5097022;28;19947;-78
2022/04/01 04:17:52;;;;;;;;;;;;;;;-0.97;75.56;97458.00;5096223;28;19922;-79
2022/04/01 04:20:26;;;;;;;;;;;;;;;-0.93;76.55;97480.50;5095332;28;19922;-78
2022/04/01 04:23:13;;;;;;;;;;;;;;;-0.94;81.71;97477.88;5095525;28;19966;-78
2022/04/01 04:25:39;;;;;;;;;;;;;;;-0.95;79.00;97470.97;5096830;28;20006;-78
2022/04/01 04:28:10;;;;;;;;;;;;;;;-0.94;79.58;97488.22;5079549;28;20335;-76
2022/04/01 04:30:45;;;;;;;;;;;;;;;-0.95;83.96;97497.69;5096157;28;19964;-77
2022/04/01 04:33:13;;;;;;;;;;;;;;;-0.94;88.88;97508.88;5095502;28;19958;-78
2022/04/01 04:35:40;;;;;;;;;;;;;;;-0.92;97.37;97522.72;5096507;28;19916;-77
2022/04/01 04:38:06;;;;;;;;;;;;;;;-0.92;100.00;97535.63;5095322;28;20363;-77
2022/04/01 04:40:31;;;;;;;;;;;;;;;-0.88;100.00;97537.47;5114289;28;19923;-77
2022/04/01 04:42:57;;;;;;;;;;;;;;;-0.89;100.00;97548.63;5095564;28;19915;-76
2022/04/01 04:45:24;;;;;;;;;;;;;;;-0.90;100.00;97572.72;5095882;28;19961;-77
2022/04/01 04:47:50;;;;;;;;;;;;;;;-0.89;100.00;97587.38;5095737;28;19916;-77
2022/04/01 04:50:16;;;;;;;;;;;;;;;-0.91;100.00;97591.63;5096071;28;19922;-77
2022/04/01 04:52:44;;;;;;;;;;;;;;;-0.91;100.00;97627.78;5095698;28;19961;-77
2022/04/01 04:55:17;;;;;;;;;;;;;;;-0.95;100.00;97624.25;5094839;28;20027;-77
2022/04/01 04:57:43;;;;;;;;;;;;;;;-0.93;100.00;97655.31;5094537;28;19961;-76
2022/04/01 05:00:10;;;;;;;;;;;;;;;-0.94;98.60;97649.22;5117435;27;20446;-78
2022/04/01 05:02:40;;;;;;;;;;;;;;;-0.93;100.00;97666.50;5115911;27;19999;-78
2022/04/01 05:05:26;;;;;;;;;;;;;;;-0.91;100.00;97679.47;5116009;27;19915;-76
2022/04/01 05:08:14;;;;;;;;;;;;;;;-0.90;100.00;97696.72;5115842;27;19950;-77
2022/04/01 05:10:57;;;;;;;;;;;;;;;-0.91;100.00;97700.13;5107577;27;19915;-78
2022/04/01 05:13:36;;;;;;;;;;;;;;;-0.91;100.00;97724.25;5116363;27;19916;-78
2022/04/01 05:16:05;;;;;;;;;;;;;;;-0.94;100.00;97738.78;5116064;27;19919;-78
2022/04/01 05:18:50;;;;;;;;;;;;;;;-0.95;100.00;97762.84;5115862;27;19915;-77
2022/04/01 05:21:22;;;;;;;;;;;;;;;-0.92;100.00;97760.34;5095526;28;19923;-77
2022/04/01 05:24:07;;;;;;;;;;;;;;;-0.94;100.00;97782.69;5095908;28;20387;-77
2022/04/01 05:26:42;;;;;;;;;;;;;;;-0.92;100.00;97788.78;5095400;28;19947;-76
2022/04/01 05:29:10;;;;;;;;;;;;;;;-0.94;100.00;97803.34;5095259;28;20421;-77
2022/04/01 05:31:55;;;;;;;;;;;;;;;-0.93;100.00;97820.63;5113713;28;19923;-77
2022/04/01 05:34:36;;;;;;;;;;;;;;;-0.93;100.00;97836.13;5078314;28;20260;-77
2022/04/01 05:37:02;;;;;;;;;;;;;;;-0.90;100.00;97846.56;5088810;28;19919;-77
2022/04/01 05:39:28;;;;;;;;;;;;;;;-0.93;100.00;97875.72;5095135;28;19951;-77
2022/04/01 05:41:54;;;;;;;;;;;;;;;-0.91;100.00;97875.78;5122111;28;19973;-77
2022/04/01 05:44:22;;;;;;;;;;;;;;;-0.89;100.00;97894.78;5100580;28;19920;-76
2022/04/01 05:46:48;;;;;;;;;;;;;;;-0.91;100.00;97893.88;5102456;28;19927;-77
2022/04/01 05:49:13;;;;;;;;;;;;;;;-0.88;100.00;97904.31;5101551;28;19923;-78
2022/04/01 05:51:39;;;;;;;;;;;;;;;-0.85;100.00;97916.47;5101833;28;20015;-78
2022/04/01 05:54:05;;;;;;;;;;;;;;;-0.88;100.00;97945.63;5084452;28;19930;-76
2022/04/01 05:56:35;;;;;;;;;;;;;;;-0.86;100.00;97956.03;5101039;28;20014;-78
2022/04/01 05:59:00;;;;;;;;;;;;;;;-0.87;100.00;97986.16;5109653;27;19983;-77
2022/04/01 06:01:30;;;;;;;;;;;;;;;-0.88;100.00;97965.44;5121531;27;19922;-76
2022/04/01 06:04:13;;;;;;;;;;;;;;;-0.85;100.00;97989.66;5121144;27;20418;-76
2022/04/01 06:06:43;;;;;;;;;;;;;;;-0.85;100.00;97989.66;5121347;27;19950;-76
2022/04/01 06:09:08;;;;;;;;;;;;;;;-0.80;100.00;98015.66;5137371;27;19938;-77
2022/04/01 06:11:41;;;;;;;;;;;;;;;-0.82;100.00;98032.84;5121501;27;20359;-77
2022/04/01 06:14:21;;;;;;;;;;;;;;;-0.79;100.00;98041.56;5120787;27;19969;-77
2022/04/01 06:17:03;;;;;;;;;;;;;;;-0.71;100.00;98054.75;5121107;27;19944;-76
2022/04/01 06:19:31;;;;;;;;;;;;;;;-0.66;100.00;98104.91;5139281;27;20022;-76
2022/04/01 06:21:59;;;;;;;;;;;;;;;-0.64;100.00;98066.19;5121077;27;19923;-76
2022/04/01 06:24:25;;;;;;;;;;;;;;;-0.62;100.00;98096.44;5129560;27;19938;-77
2022/04/01 06:27:03;;;;;;;;;;;;;;;-0.61;100.00;98123.16;5138556;27;20581;-77
2022/04/01 06:29:36;;;;;;;;;;;;;;;-0.47;100.00;98145.22;5120788;27;19992;-77
2022/04/01 06:32:12;;;;;;;;;;;;;;;-0.45;100.00;98147.84;5120924;27;20227;-76
2022/04/01 06:34:40;;;;;;;;;;;;;;;-0.28;100.00;98163.97;5107534;27;19916;-76
2022/04/01 06:37:09;;;;;;;;;;;;;;;-0.15;100.00;98160.13;5121127;27;20090;-77
2022/04/01 06:39:47;;;;;;;;;;;;;;;-0.12;100.00;98168.88;5139770;27;19926;-77
2022/04/01 06:42:19;;;;;;;;;;;;;;;-0.08;100.00;98211.25;5121191;27;20362;-77
2022/04/01 06:44:45;;;;;;;;;;;;;;;-0.07;100.00;98219.06;5121113;27;19915;-77
2022/04/01 06:47:10;;;;;;;;;;;;;;;-0.08;100.00;98230.25;5120479;27;19938;-75
2022/04/01 06:49:36;;;;;;;;;;;;;;;0.01;100.00;98242.63;5120748;27;20351;-76
2022/04/01 06:52:02;;;;;;;;;;;;;;;0.03;100.00;98279.75;5120232;27;19949;-76
2022/04/01 06:54:29;;;;;;;;;;;;;;;0.10;100.00;98288.66;5119176;28;19962;-76
2022/04/01 06:56:54;;;;;;;;;;;;;;;0.20;100.00;98282.97;5117040;27;20014;-75
2022/04/01 06:59:20;;;;;;;;;;;;;;;0.31;100.00;98304.97;5116755;27;19915;-75
2022/04/01 07:01:45;;;;;;;;;;;;;;;0.30;100.00;98333.38;5117279;27;19919;-75
2022/04/01 07:04:11;;;;;;;;;;;;;;;0.39;100.00;98351.84;5116694;27;19973;-76
2022/04/01 07:06:36;;;;;;;;;;;;;;;0.44;100.00;98386.53;5115764;27;20382;-76
2022/04/01 07:09:02;;;;;;;;;;;;;;;0.61;100.00;98410.44;5116314;27;20372;-75
2022/04/01 07:11:27;;;;;;;;;;;;;;;0.82;100.00;98425.88;5117337;27;20260;-76
2022/04/01 07:13:53;;;;;;;;;;;;;;;1.01;100.00;98442.97;5116283;27;20347;-76
2022/04/01 07:16:18;;;;;;;;;;;;;;;0.88;100.00;98510.72;5116870;27;19915;-76
2022/04/01 07:18:44;;;;;;;;;;;;;;;0.91;100.00;98533.28;5116943;27;19923;-75
2022/04/01 07:21:09;;;;;;;;;;;;;;;0.77;100.00;98587.19;5117081;27;19968;-77
2022/04/01 07:23:37;;;;;;;;;;;;;;;0.77;100.00;98616.53;5135806;27;19915;-76
2022/04/01 07:26:02;;;;;;;;;;;;;;;0.70;100.00;98656.00;5117363;27;20371;-76
2022/04/01 07:28:28;;;;;;;;;;;;;;;0.69;100.00;98700.84;5117413;27;19916;-77
2022/04/01 07:30:54;;;;;;;;;;;;;;;0.73;100.00;98746.81;5135494;27;19971;-76
2022/04/01 07:33:21;;;;;;;;;;;;;;;0.71;100.00;98841.69;5135345;27;20433;-77
2022/04/01 07:35:49;;;;;;;;;;;;;;;0.75;100.00;98871.22;5117917;27;20420;-77
2022/04/01 07:38:17;;;;;;;;;;;;;;;0.83;100.00;98891.44;5118694;27;19980;-77
2022/04/01 07:40:42;;;;;;;;;;;;;;;0.99;100.00;98854.09;5117738;27;19916;-77
2022/04/01 07:43:08;;;;;;;;;;;;;;;1.04;100.00;98909.63;5117033;27;20662;-77
2022/04/01 07:45:34;;;;;;;;;;;;;;;1.09;100.00;98943.53;5117143;27;19916;-77
2022/04/01 07:48:00;;;;;;;;;;;;;;;1.07;100.00;98987.53;5117160;27;19915;-77
2022/04/01 07:50:26;;;;;;;;;;;;;;;1.04;100.00;99075.53;5116978;27;19923;-78
2022/04/01 07:52:51;;;;;;;;;;;;;;;1.10;100.00;99102.53;5117681;27;19915;-78
2022/04/01 07:55:17;;;;;;;;;;;;;;;1.12;100.00;99165.69;5117129;27;19919;-78
2022/04/01 07:57:43;;;;;;;;;;;;;;;1.16;100.00;99228.16;5117390;27;19962;-77
2022/04/01 08:00:08;;;;;;;;;;;;;;;1.17;100.00;99294.75;5116317;27;20048;-77
2022/04/01 08:02:34;;;;;;;;;;;;;;;1.25;100.00;99339.22;5116899;27;19915;-78
2022/04/01 08:05:04;;;;;;;;;;;;;;;1.25;100.00;99409.22;5116766;27;19922;-77
2022/04/01 08:07:29;;;;;;;;;;;;;;;1.26;100.00;99475.84;5117376;27;19922;-78
2022/04/01 08:09:55;;;;;;;;;;;;;;;1.32;100.00;99530.63;5117135;27;19916;-78
2022/04/01 08:12:20;;;;;;;;;;;;;;;1.49;100.00;99569.50;5135729;27;20359;-78
2022/04/01 08:14:48;;;;;;;;;;;;;;;1.58;100.00;99608.91;5117054;27;19915;-78
2022/04/01 08:17:15;;;;;;;;;;;;;;;1.73;100.00;99656.41;5135527;27;19931;-78
2022/04/01 08:19:41;;;;;;;;;;;;;;;1.93;100.00;99695.50;5117180;27;19916;-78
2022/04/01 08:22:06;;;;;;;;;;;;;;;2.02;100.00;99729.72;5116692;27;20052;-77
2022/04/01 08:24:31;;;;;;;;;;;;;;;1.98;100.00;99775.41;5116858;27;20363;-78
2022/04/01 08:26:59;;;;;;;;;;;;;;;1.99;100.00;99810.06;5116723;27;19973;-78
2022/04/01 08:29:26;;;;;;;;;;;;;;;1.85;100.00;99858.66;5116990;27;19919;-75
2022/04/01 08:31:53;;;;;;;;;;;;;;;1.84;100.00;99903.56;5135227;27;20021;-79
2022/04/01 08:34:20;;;;;;;;;;;;;;;1.84;100.00;99919.16;5116699;27;19949;-77
2022/04/01 08:36:45;;;;;;;;;;;;;;;1.93;100.00;99939.56;5134990;27;19915;-76
2022/04/01 08:39:11;;;;;;;;;;;;;;;1.76;100.00;99968.03;5115906;27;20049;-76
2022/04/01 08:41:36;;;;;;;;;;;;;;;1.71;100.00;99994.53;5116761;27;19934;-75
2022/04/01 08:44:03;;;;;;;;;;;;;;;1.78;100.00;100018.34;5134135;27;20010;-78
2022/04/01 08:46:29;;;;;;;;;;;;;;;1.79;100.00;100030.53;5116242;27;19962;-77
2022/04/01 08:48:54;;;;;;;;;;;;;;;1.78;100.00;100043.41;5116431;27;19999;-76
2022/04/01 08:51:20;;;;;;;;;;;;;;;1.79;100.00;100066.88;5099532;27;19977;-76
2022/04/01 08:53:46;;;;;;;;;;;;;;;1.76;100.00;100066.69;5134767;27;20371;-77
2022/04/01 08:56:12;;;;;;;;;;;;;;;1.77;100.00;100073.69;5116202;27;19926;-77
2022/04/01 08:58:37;;;;;;;;;;;;;;;1.86;100.00;100095.78;5099195;27;19920;-79
2022/04/01 09:01:05;;;;;;;;;;;;;;;1.93;100.00;100087.56;5116539;27;19919;-80
2022/04/01 09:03:34;;;;;;;;;;;;;;;2.05;100.00;100106.44;5116395;27;19911;-79
2022/04/01 09:06:01;;;;;;;;;;;;;;;2.06;100.00;100112.53;5116079;27;19922;-78
2022/04/01 09:08:35;;;;;;;;;;;;;;;2.13;100.00;100125.06;5116463;27;19911;-77
2022/04/01 09:11:12;;;;;;;;;;;;;;;2.15;100.00;100155.50;5116380;27;19916;-79
2022/04/01 09:13:49;;;;;;;;;;;;;;;2.39;100.00;100138.66;5099189;27;20331;-78
2022/04/01 09:16:22;;;;;;;;;;;;;;;2.63;100.00;100155.63;5115696;27;19974;-78
2022/04/01 09:18:48;;;;;;;;;;;;;;;2.63;100.00;100171.25;5113983;27;19921;-79
2022/04/01 09:21:14;;;;;;;;;;;;;;;2.81;100.00;100176.59;5134521;27;20001;-79
2022/04/01 09:23:45;;;;;;;;;;;;;;;2.93;100.00;100159.88;5116301;27;19915;-79
2022/04/01 09:26:10;;;;;;;;;;;;;;;2.64;100.00;99951.16;5115869;27;19923;-79
2022/04/01 09:28:42;;;;;;;;;;;;;;;2.67;100.00;99844.75;5115975;27;19916;-78
2022/04/01 09:31:14;;;;;;;;;;;;;;;2.60;100.00;99936.25;5134390;27;20280;-79
2022/04/01 09:33:41;;;;;;;;;;;;;;;2.55;100.00;99984.47;5134402;27;20320;-78
2022/04/01 09:36:07;;;;;;;;;;;;;;;2.60;100.00;100009.91;5115928;28;19980;-79
2022/04/01 09:38:34;;;;;;;;;;;;;;;2.60;100.00;100019.41;5115872;27;20010;-79
2022/04/01 09:41:02;;;;;;;;;;;;;;;2.51;100.00;100046.66;5115633;28;20018;-79
2022/04/01 09:43:37;;;;;;;;;;;;;;;2.40;100.00;100059.91;5115476;28;20381;-79
2022/04/01 09:46:20;;;;;;;;;;;;;;;2.61;100.00;100079.28;5115812;28;20328;-79
2022/04/01 09:48:47;;;;;;;;;;;;;;;2.47;100.00;100101.00;5115949;28;19923;-78
2022/04/01 09:51:12;;;;;;;;;;;;;;;2.64;100.00;100105.44;5115517;28;19915;-79
2022/04/01 09:53:39;;;;;;;;;;;;;;;2.65;100.00;100095.94;5116004;28;19922;-78
2022/04/01 09:56:04;;;;;;;;;;;;;;;2.51;100.00;100148.03;5115825;28;20537;-79
2022/04/01 09:58:29;;;;;;;;;;;;;;;2.77;100.00;100122.63;5115955;28;19916;-78
2022/04/01 10:00:56;;;;;;;;;;;;;;;2.84;100.00;100132.56;5115575;28;19916;-78
2022/04/01 10:03:22;;;;;;;;;;;;;;;3.00;100.00;100146.41;5116029;28;19916;-78
2022/04/01 10:05:47;;;;;;;;;;;;;;;3.01;100.00;100143.88;5134581;28;19915;-79
2022/04/01 10:08:13;;;;;;;;;;;;;;;2.96;100.00;100158.34;5115759;28;19915;-79
2022/04/01 10:10:39;;;;;;;;;;;;;;;2.92;100.00;100169.41;5098793;28;20371;-79
2022/04/01 10:13:21;;;;;;;;;;;;;;;2.80;100.00;100190.41;5133625;28;19969;-79
2022/04/01 10:15:47;;;;;;;;;;;;;;;3.10;100.00;100147.81;5099094;28;19923;-77
2022/04/01 10:18:13;;;;;;;;;;;;;;;3.20;100.00;100181.28;5115779;28;19915;-77
2022/04/01 10:20:40;;;;;;;;;;;;;;;3.41;100.00;100163.34;5115550;28;19922;-78
2022/04/01 10:23:11;;;;;;;;;;;;;;;3.17;100.00;100200.25;5133331;28;19951;-77
2022/04/01 10:25:45;;;;;;;;;;;;;;;3.28;100.00;100206.03;5134254;28;19915;-78
2022/04/01 10:28:11;;;;;;;;;;;;;;;3.75;100.00;100172.97;5134042;28;19969;-78
2022/04/01 10:30:40;;;;;;;;;;;;;;;3.61;100.00;100207.78;5116903;27;19995;-79
2022/04/01 10:33:20;;;;;;;;;;;;;;;3.65;100.00;100182.00;5119026;27;19919;-78
2022/04/01 10:35:45;;;;;;;;;;;;;;;3.45;100.00;100187.81;5119206;27;19976;-78
2022/04/01 10:38:10;;;;;;;;;;;;;;;3.39;100.00;100191.03;5119191;27;19972;-78
2022/04/01 10:40:38;;;;;;;;;;;;;;;3.43;100.00;100169.53;5119643;27;19925;-78
2022/04/01 10:43:12;;;;;;;;;;;;;;;3.32;100.00;100194.97;5137156;27;20031;-78
2022/04/01 10:45:39;;;;;;;;;;;;;;;3.50;100.00;100182.06;5137614;27;19922;-76
2022/04/01 10:54:06;;;;;;;;;;;;;;;3.61;100.00;100259.88;5137381;27;20378;-78
2022/04/01 10:56:32;;;;;;;;;;;;;;;3.45;100.00;100245.09;5119179;27;20312;-77
2022/04/01 10:59:07;;;;;;;;;;;;;;;3.43;100.00;100237.19;5118890;27;19923;-78
2022/04/01 11:01:34;;;;;;;;;;;;;;;3.48;100.00;100211.41;5119109;27;19967;-78
2022/04/01 11:04:01;;;;;;;;;;;;;;;3.54;100.00;100190.94;5118494;27;19947;-78
2022/04/01 11:06:27;;;;;;;;;;;;;;;3.36;100.00;100246.38;5136846;27;19919;-78
2022/04/01 11:08:53;;;;;;;;;;;;;;;3.53;100.00;100203.06;5101759;27;19920;-77
2022/04/01 11:11:19;;;;;;;;;;;;;;;3.43;100.00;100226.78;5117682;27;19938;-77
2022/04/01 11:14:02;;;;;;;;;;;;;;;3.12;100.00;100239.81;5118382;27;19915;-77
2022/04/01 11:16:44;;;;;;;;;;;;;;;3.11;100.00;100233.72;5118392;27;19959;-77
2022/04/01 11:19:09;;;;;;;;;;;;;;;3.30;100.00;100219.16;5118403;27;20863;-78
2022/04/01 11:21:35;;;;;;;;;;;;;;;3.47;100.00;100222.66;5117783;27;19935;-77
2022/04/01 11:24:25;;;;;;;;;;;;;;;3.54;100.00;100219.56;5118212;27;19920;-77
2022/04/01 11:26:51;;;;;;;;;;;;;;;3.44;100.00;100232.91;5106273;27;19926;-77
2022/04/01 11:29:20;;;;;;;;;;;;;;;3.42;100.00;100266.66;5098792;27;20389;-77
2022/04/01 11:31:46;;;;;;;;;;;;;;;3.72;100.00;100254.41;5135561;27;19934;-77
2022/04/01 11:34:13;;;;;;;;;;;;;;;3.46;100.00;100292.03;5117410;27;20363;-77
2022/04/01 11:36:40;;;;;;;;;;;;;;;3.21;100.00;100315.78;5117340;27;19923;-77
2022/04/01 11:39:05;;;;;;;;;;;;;;;3.02;100.00;100325.16;5117568;27;19927;-77
2022/04/01 11:41:44;;;;;;;;;;;;;;;3.14;100.00;100313.63;5117457;27;19923;-77
2022/04/01 11:44:15;;;;;;;;;;;;;;;3.37;100.00;100288.91;5080389;28;22265;-78
2022/04/01 11:46:49;;;;;;;;;;;;;;;3.18;100.00;100316.50;5097355;28;19916;-77
2022/04/01 11:49:15;;;;;;;;;;;;;;;3.18;100.00;100320.81;5125757;27;19991;-77
2022/04/01 11:51:40;;;;;;;;;;;;;;;3.66;100.00;100307.88;5117658;27;19955;-77
2022/04/01 11:54:08;;;;;;;;;;;;;;;3.65;100.00;100329.50;5117112;27;19916;-77
2022/04/01 11:56:34;;;;;;;;;;;;;;;3.80;100.00;100364.22;5117699;27;19919;-77
2022/04/01 11:59:00;;;;;;;;;;;;;;;3.69;100.00;100380.94;5135217;27;19922;-77
2022/04/01 12:01:54;;;;;;;;;;;;;;;3.50;100.00;100390.31;5117188;27;20021;-77
2022/04/01 12:04:32;;;;;;;;;;;;;;;3.50;100.00;100418.97;5114087;28;19924;-77
2022/04/01 12:09:42;;;;;;;;;;;;;;;3.49;100.00;100457.91;5114943;28;19923;-77
2022/04/01 12:12:08;;;;;;;;;;;;;;;3.59;100.00;100462.88;5079328;28;19919;-76
2022/04/01 12:14:34;;;;;;;;;;;;;;;3.54;100.00;100472.09;5096277;28;19980;-77
2022/04/01 12:17:03;;;;;;;;;;;;;;;3.54;100.00;100472.09;5096706;28;19915;-78
2022/04/01 12:19:30;;;;;;;;;;;;;;;3.38;100.00;100483.31;5096587;28;19930;-77
2022/04/01 12:21:56;;;;;;;;;;;;;;;3.41;100.00;100484.41;5096643;28;19961;-77
2022/04/01 12:24:26;;;;;;;;;;;;;;;3.21;100.00;100472.81;5096850;28;20271;-77
2022/04/01 12:26:51;;;;;;;;;;;;;;;3.26;100.00;100430.56;5096143;28;19911;-77
2022/04/01 12:29:20;;;;;;;;;;;;;;;3.59;100.00;100395.16;5096376;28;19928;-77
2022/04/01 12:31:54;;;;;;;;;;;;;;;3.44;100.00;100405.59;5114737;28;19916;-78
2022/04/01 12:34:19;;;;;;;;;;;;;;;3.59;100.00;100406.47;5114866;28;19916;-77
2022/04/01 12:36:50;;;;;;;;;;;;;;;3.80;100.00;100418.00;5113936;28;20382;-79
2022/04/01 12:39:15;;;;;;;;;;;;;;;3.90;100.00;100442.06;5094820;28;19919;-76
2022/04/01 12:41:58;;;;;;;;;;;;;;;3.88;100.00;100446.25;5096353;28;19926;-77
2022/04/01 12:44:27;;;;;;;;;;;;;;;3.53;100.00;100442.56;5095826;28;19919;-77
2022/04/01 12:46:53;;;;;;;;;;;;;;;3.51;100.00;100441.59;5114591;28;19916;-77
2022/04/01 12:49:19;;;;;;;;;;;;;;;3.49;100.00;100455.31;5114703;28;19923;-77
2022/04/01 12:51:49;;;;;;;;;;;;;;;3.31;100.00;100461.25;5096360;28;20395;-77
2022/04/01 12:54:33;;;;;;;;;;;;;;;3.50;100.00;100463.22;5095785;28;19916;-77
2022/04/01 12:57:05;;;;;;;;;;;;;;;3.47;100.00;100494.28;5113793;28;19923;-76
2022/04/01 12:59:37;;;;;;;;;;;;;;;3.55;100.00;100516.44;5096018;28;19922;-77